sensor_id;sensor_type;location;lat;lon;timestamp;pressure;altitude;pressure_sealevel;temperature;humidity
79067;BME280;68470;50.224;14.348;2023-07-31T00:02:15;99313.69;;;13.26;87.17
79067;BME280;68470;50.224;14.348;2023-07-31T00:04:40;99312.72;;;12.97;89.49
79067;BME280;68470;50.224;14.348;2023-07-31T00:07:06;99311.63;;;12.87;89.27
79067;BME280;68470;50.224;14.348;2023-07-31T00:09:33;99323.25;;;12.84;90.89
79067;BME280;68470;50.224;14.348;2023-07-31T00:11:59;99313.03;;;12.85;91.63
79067;BME280;68470;50.224;14.348;2023-07-31T00:14:24;99312.22;;;12.84;89.53
79067;BME280;68470;50.224;14.348;2023-07-31T00:16:52;99305.94;;;12.58;93.50
79067;BME280;68470;50.224;14.348;2023-07-31T00:19:18;99304.09;;;12.28;94.83
79067;BME280;68470;50.224;14.348;2023-07-31T00:21:44;99304.63;;;12.35;94.68
79067;BME280;68470;50.224;14.348;2023-07-31T00:24:10;99310.13;;;12.25;93.99
79067;BME280;68470;50.224;14.348;2023-07-31T00:26:36;99316.16;;;12.53;92.44
79067;BME280;68470;50.224;14.348;2023-07-31T00:29:01;99306.25;;;12.42;92.96
79067;BME280;68470;50.224;14.348;2023-07-31T00:31:27;99304.56;;;12.56;92.79
79067;BME280;68470;50.224;14.348;2023-07-31T00:33:53;99305.66;;;12.55;92.42
79067;BME280;68470;50.224;14.348;2023-07-31T00:36:19;99306.59;;;12.10;94.80
79067;BME280;68470;50.224;14.348;2023-07-31T00:38:44;99314.03;;;12.04;95.77
79067;BME280;68470;50.224;14.348;2023-07-31T00:41:10;99301.34;;;11.78;97.76
79067;BME280;68470;50.224;14.348;2023-07-31T00:43:36;99296.38;;;12.00;97.50
79067;BME280;68470;50.224;14.348;2023-07-31T00:46:02;99301.03;;;11.69;98.64
79067;BME280;68470;50.224;14.348;2023-07-31T00:48:28;99315.13;;;11.78;99.57
79067;BME280;68470;50.224;14.348;2023-07-31T00:50:54;99308.25;;;11.85;99.09
79067;BME280;68470;50.224;14.348;2023-07-31T00:53:20;99319.28;;;11.90;99.39
79067;BME280;68470;50.224;14.348;2023-07-31T00:55:46;99302.16;;;12.09;95.66
79067;BME280;68470;50.224;14.348;2023-07-31T00:58:11;99298.59;;;12.13;97.18
79067;BME280;68470;50.224;14.348;2023-07-31T01:00:37;99309.50;;;12.69;91.41
79067;BME280;68470;50.224;14.348;2023-07-31T01:03:03;99308.97;;;12.57;93.11
79067;BME280;68470;50.224;14.348;2023-07-31T01:05:39;99305.13;;;12.53;92.12
79067;BME280;68470;50.224;14.348;2023-07-31T01:08:15;99309.53;;;12.54;92.36
79067;BME280;68470;50.224;14.348;2023-07-31T01:10:49;99309.25;;;12.55;91.90
79067;BME280;68470;50.224;14.348;2023-07-31T01:13:17;99299.06;;;12.51;91.41
79067;BME280;68470;50.224;14.348;2023-07-31T01:15:43;99300.75;;;12.47;92.11
79067;BME280;68470;50.224;14.348;2023-07-31T01:18:09;99301.25;;;12.54;91.64
79067;BME280;68470;50.224;14.348;2023-07-31T01:20:35;99292.97;;;12.64;89.58
79067;BME280;68470;50.224;14.348;2023-07-31T01:28:27;99293.53;;;12.51;91.38
79067;BME280;68470;50.224;14.348;2023-07-31T01:30:55;99288.56;;;12.53;90.63
79067;BME280;68470;50.224;14.348;2023-07-31T01:33:24;99293.22;;;12.57;91.05
79067;BME280;68470;50.224;14.348;2023-07-31T01:35:50;99295.78;;;12.44;92.41
79067;BME280;68470;50.224;14.348;2023-07-31T01:38:20;99275.38;;;12.29;92.93
79067;BME280;68470;50.224;14.348;2023-07-31T01:40:50;99283.38;;;12.26;93.45
79067;BME280;68470;50.224;14.348;2023-07-31T01:43:16;99282.00;;;12.28;93.08
79067;BME280;68470;50.224;14.348;2023-07-31T01:45:43;99280.34;;;12.27;93.42
79067;BME280;68470;50.224;14.348;2023-07-31T01:48:08;99280.91;;;12.24;93.34
79067;BME280;68470;50.224;14.348;2023-07-31T01:50:35;99259.94;;;12.18;93.73
79067;BME280;68470;50.224;14.348;2023-07-31T01:53:00;99274.84;;;12.27;93.44
79067;BME280;68470;50.224;14.348;2023-07-31T01:55:26;99280.63;;;12.31;93.19
79067;BME280;68470;50.224;14.348;2023-07-31T01:57:53;99269.31;;;12.22;94.00
79067;BME280;68470;50.224;14.348;2023-07-31T02:00:19;99266.00;;;12.20;93.52
79067;BME280;68470;50.224;14.348;2023-07-31T02:02:44;99270.19;;;12.13;94.21
79067;BME280;68470;50.224;14.348;2023-07-31T02:05:10;99271.50;;;12.25;93.65
79067;BME280;68470;50.224;14.348;2023-07-31T02:07:36;99271.28;;;12.01;94.46
79067;BME280;68470;50.224;14.348;2023-07-31T02:10:02;99265.75;;;11.91;95.34
79067;BME280;68470;50.224;14.348;2023-07-31T02:12:28;99262.47;;;11.79;97.11
79067;BME280;68470;50.224;14.348;2023-07-31T02:14:57;99265.47;;;11.67;97.31
79067;BME280;68470;50.224;14.348;2023-07-31T02:17:22;99263.25;;;11.69;97.73
79067;BME280;68470;50.224;14.348;2023-07-31T02:19:48;99255.81;;;11.70;97.94
79067;BME280;68470;50.224;14.348;2023-07-31T02:22:14;99256.09;;;11.68;98.44
79067;BME280;68470;50.224;14.348;2023-07-31T02:24:40;99256.69;;;11.96;95.40
79067;BME280;68470;50.224;14.348;2023-07-31T02:27:05;99258.88;;;11.84;96.92
79067;BME280;68470;50.224;14.348;2023-07-31T02:29:31;99252.81;;;11.87;96.36
79067;BME280;68470;50.224;14.348;2023-07-31T02:31:57;99246.47;;;11.96;95.83
79067;BME280;68470;50.224;14.348;2023-07-31T02:34:23;99253.88;;;12.21;93.68
79067;BME280;68470;50.224;14.348;2023-07-31T02:36:48;99255.00;;;12.10;95.08
79067;BME280;68470;50.224;14.348;2023-07-31T02:39:14;99247.78;;;12.24;92.65
79067;BME280;68470;50.224;14.348;2023-07-31T02:41:39;99250.44;;;12.55;90.54
79067;BME280;68470;50.224;14.348;2023-07-31T02:44:05;99258.78;;;12.40;92.23
79067;BME280;68470;50.224;14.348;2023-07-31T02:46:31;99246.13;;;12.33;92.21
79067;BME280;68470;50.224;14.348;2023-07-31T02:48:57;99251.06;;;12.37;91.41
79067;BME280;68470;50.224;14.348;2023-07-31T02:51:22;99242.16;;;12.65;89.73
79067;BME280;68470;50.224;14.348;2023-07-31T02:53:48;99228.91;;;12.57;89.47
79067;BME280;68470;50.224;14.348;2023-07-31T02:56:15;99252.06;;;12.66;88.83
79067;BME280;68470;50.224;14.348;2023-07-31T02:58:40;99247.31;;;12.82;88.34
79067;BME280;68470;50.224;14.348;2023-07-31T03:01:06;99252.28;;;12.85;87.28
79067;BME280;68470;50.224;14.348;2023-07-31T03:03:32;99258.03;;;12.88;87.52
79067;BME280;68470;50.224;14.348;2023-07-31T03:05:57;99254.69;;;12.97;86.64
79067;BME280;68470;50.224;14.348;2023-07-31T03:08:23;99253.56;;;13.03;86.39
79067;BME280;68470;50.224;14.348;2023-07-31T03:10:49;99253.59;;;12.92;86.41
79067;BME280;68470;50.224;14.348;2023-07-31T03:13:14;99250.56;;;12.94;87.41
79067;BME280;68470;50.224;14.348;2023-07-31T03:15:43;99247.47;;;13.06;85.15
79067;BME280;68470;50.224;14.348;2023-07-31T03:18:09;99248.03;;;13.03;85.48
79067;BME280;68470;50.224;14.348;2023-07-31T03:20:35;99244.19;;;12.99;85.33
79067;BME280;68470;50.224;14.348;2023-07-31T03:23:00;99251.31;;;13.05;85.35
79067;BME280;68470;50.224;14.348;2023-07-31T03:25:26;99255.28;;;12.88;87.09
79067;BME280;68470;50.224;14.348;2023-07-31T03:27:52;99252.69;;;12.48;87.68
79067;BME280;68470;50.224;14.348;2023-07-31T03:30:17;99247.19;;;12.48;89.24
79067;BME280;68470;50.224;14.348;2023-07-31T03:32:43;99258.19;;;12.53;87.92
79067;BME280;68470;50.224;14.348;2023-07-31T03:35:09;99259.28;;;12.57;88.64
79067;BME280;68470;50.224;14.348;2023-07-31T03:37:35;99251.81;;;12.62;88.07
79067;BME280;68470;50.224;14.348;2023-07-31T03:40:00;99247.06;;;12.78;86.61
79067;BME280;68470;50.224;14.348;2023-07-31T03:42:26;99253.09;;;12.85;85.66
79067;BME280;68470;50.224;14.348;2023-07-31T03:44:52;99261.06;;;12.97;85.36
79067;BME280;68470;50.224;14.348;2023-07-31T03:47:17;99269.44;;;12.77;87.41
79067;BME280;68470;50.224;14.348;2023-07-31T03:49:43;99262.88;;;13.22;83.69
79067;BME280;68470;50.224;14.348;2023-07-31T03:52:09;99260.09;;;13.27;83.66
79067;BME280;68470;50.224;14.348;2023-07-31T03:54:35;99261.66;;;13.38;83.57
79067;BME280;68470;50.224;14.348;2023-07-31T03:57:01;99264.38;;;13.43;83.01
79067;BME280;68470;50.224;14.348;2023-07-31T03:59:26;99266.88;;;13.45;83.37
79067;BME280;68470;50.224;14.348;2023-07-31T04:01:52;99251.06;;;13.50;82.22
79067;BME280;68470;50.224;14.348;2023-07-31T04:04:17;99257.91;;;13.58;83.01
79067;BME280;68470;50.224;14.348;2023-07-31T04:06:43;99253.78;;;13.61;82.37
79067;BME280;68470;50.224;14.348;2023-07-31T04:09:09;99250.44;;;13.64;82.48
79067;BME280;68470;50.224;14.348;2023-07-31T04:11:35;99252.38;;;13.63;82.68
79067;BME280;68470;50.224;14.348;2023-07-31T04:14:00;99256.44;;;13.71;81.96
79067;BME280;68470;50.224;14.348;2023-07-31T04:16:26;99243.69;;;13.75;81.07
79067;BME280;68470;50.224;14.348;2023-07-31T04:18:52;99245.06;;;13.77;80.74
79067;BME280;68470;50.224;14.348;2023-07-31T04:21:18;99241.94;;;13.84;82.01
79067;BME280;68470;50.224;14.348;2023-07-31T04:23:43;99249.13;;;13.85;80.65
79067;BME280;68470;50.224;14.348;2023-07-31T04:26:09;99255.97;;;13.93;81.19
79067;BME280;68470;50.224;14.348;2023-07-31T04:28:35;99240.19;;;13.93;81.85
79067;BME280;68470;50.224;14.348;2023-07-31T04:31:01;99239.63;;;13.96;81.06
79067;BME280;68470;50.224;14.348;2023-07-31T04:33:26;99241.06;;;13.89;81.05
79067;BME280;68470;50.224;14.348;2023-07-31T04:35:52;99243.47;;;14.00;80.72
79067;BME280;68470;50.224;14.348;2023-07-31T04:38:21;99252.00;;;14.04;80.89
79067;BME280;68470;50.224;14.348;2023-07-31T04:40:48;99247.63;;;13.98;82.14
79067;BME280;68470;50.224;14.348;2023-07-31T04:43:14;99239.47;;;14.11;80.26
79067;BME280;68470;50.224;14.348;2023-07-31T04:45:42;99245.13;;;14.25;80.18
79067;BME280;68470;50.224;14.348;2023-07-31T04:48:10;99245.34;;;14.34;79.92
79067;BME280;68470;50.224;14.348;2023-07-31T04:50:36;99242.72;;;14.48;78.58
79067;BME280;68470;50.224;14.348;2023-07-31T04:53:01;99241.59;;;14.49;78.77
79067;BME280;68470;50.224;14.348;2023-07-31T04:55:27;99240.19;;;14.51;78.57
79067;BME280;68470;50.224;14.348;2023-07-31T04:57:53;99228.94;;;14.37;78.06
79067;BME280;68470;50.224;14.348;2023-07-31T05:00:19;99249.38;;;14.47;79.39
79067;BME280;68470;50.224;14.348;2023-07-31T05:02:45;99245.19;;;14.49;77.87
79067;BME280;68470;50.224;14.348;2023-07-31T05:05:11;99255.69;;;14.52;77.80
79067;BME280;68470;50.224;14.348;2023-07-31T05:07:36;99256.19;;;14.54;77.77
79067;BME280;68470;50.224;14.348;2023-07-31T05:10:03;99254.84;;;14.52;78.07
79067;BME280;68470;50.224;14.348;2023-07-31T05:12:28;99245.00;;;14.64;77.25
79067;BME280;68470;50.224;14.348;2023-07-31T05:14:54;99252.66;;;14.72;77.32
79067;BME280;68470;50.224;14.348;2023-07-31T05:17:19;99249.28;;;14.75;76.33
79067;BME280;68470;50.224;14.348;2023-07-31T05:19:45;99250.06;;;14.81;77.34
79067;BME280;68470;50.224;14.348;2023-07-31T05:22:11;99246.41;;;14.86;77.98
79067;BME280;68470;50.224;14.348;2023-07-31T05:24:37;99248.88;;;14.87;77.46
79067;BME280;68470;50.224;14.348;2023-07-31T05:27:03;99248.44;;;14.99;77.13
79067;BME280;68470;50.224;14.348;2023-07-31T05:29:29;99262.44;;;15.08;76.33
79067;BME280;68470;50.224;14.348;2023-07-31T05:31:55;99265.63;;;15.20;78.28
79067;BME280;68470;50.224;14.348;2023-07-31T05:34:21;99256.88;;;15.31;75.44
79067;BME280;68470;50.224;14.348;2023-07-31T05:36:46;99256.78;;;15.37;75.47
79067;BME280;68470;50.224;14.348;2023-07-31T05:39:12;99241.25;;;15.35;76.29
79067;BME280;68470;50.224;14.348;2023-07-31T05:41:38;99248.91;;;15.25;76.33
79067;BME280;68470;50.224;14.348;2023-07-31T05:44:04;99253.53;;;15.11;75.67
79067;BME280;68470;50.224;14.348;2023-07-31T05:46:30;99244.88;;;15.17;77.62
79067;BME280;68470;50.224;14.348;2023-07-31T05:48:57;99240.72;;;15.52;75.86
79067;BME280;68470;50.224;14.348;2023-07-31T05:51:22;99237.56;;;15.78;74.97
79067;BME280;68470;50.224;14.348;2023-07-31T05:53:48;99228.94;;;16.25;73.21
79067;BME280;68470;50.224;14.348;2023-07-31T05:56:14;99235.00;;;17.46;70.43
79067;BME280;68470;50.224;14.348;2023-07-31T05:58:39;99222.44;;;18.16;66.85
79067;BME280;68470;50.224;14.348;2023-07-31T06:01:05;99224.78;;;19.19;63.89
79067;BME280;68470;50.224;14.348;2023-07-31T06:03:31;99222.25;;;18.12;66.10
79067;BME280;68470;50.224;14.348;2023-07-31T06:05:56;99211.25;;;17.62;68.29
79067;BME280;68470;50.224;14.348;2023-07-31T06:08:22;99207.72;;;17.12;70.43
79067;BME280;68470;50.224;14.348;2023-07-31T06:10:48;99207.13;;;17.01;69.63
79067;BME280;68470;50.224;14.348;2023-07-31T06:13:14;99211.75;;;17.06;70.26
79067;BME280;68470;50.224;14.348;2023-07-31T06:15:40;99209.19;;;16.96;70.21
79067;BME280;68470;50.224;14.348;2023-07-31T06:18:05;99206.34;;;16.87;69.92
79067;BME280;68470;50.224;14.348;2023-07-31T06:20:34;99206.66;;;16.72;70.67
79067;BME280;68470;50.224;14.348;2023-07-31T06:23:00;99213.97;;;16.68;71.79
79067;BME280;68470;50.224;14.348;2023-07-31T06:25:25;99219.72;;;16.71;71.35
79067;BME280;68470;50.224;14.348;2023-07-31T06:27:52;99214.56;;;16.65;71.75
79067;BME280;68470;50.224;14.348;2023-07-31T06:30:17;99204.28;;;16.65;72.87
79067;BME280;68470;50.224;14.348;2023-07-31T06:32:43;99197.47;;;16.85;71.96
79067;BME280;68470;50.224;14.348;2023-07-31T06:35:09;99192.00;;;16.94;71.46
79067;BME280;68470;50.224;14.348;2023-07-31T06:37:35;99203.75;;;16.77;72.57
79067;BME280;68470;50.224;14.348;2023-07-31T06:40:00;99203.88;;;16.72;73.48
79067;BME280;68470;50.224;14.348;2023-07-31T06:42:26;99202.81;;;16.54;73.80
79067;BME280;68470;50.224;14.348;2023-07-31T06:44:52;99196.34;;;16.45;73.80
79067;BME280;68470;50.224;14.348;2023-07-31T06:47:18;99192.13;;;16.47;75.11
79067;BME280;68470;50.224;14.348;2023-07-31T06:49:44;99193.16;;;16.51;71.56
79067;BME280;68470;50.224;14.348;2023-07-31T06:52:10;99211.91;;;16.73;72.78
79067;BME280;68470;50.224;14.348;2023-07-31T06:54:36;99204.69;;;16.72;72.85
79067;BME280;68470;50.224;14.348;2023-07-31T06:57:02;99202.63;;;16.78;70.42
79067;BME280;68470;50.224;14.348;2023-07-31T06:59:29;99204.31;;;17.15;70.73
79067;BME280;68470;50.224;14.348;2023-07-31T07:01:54;99200.25;;;17.57;67.83
79067;BME280;68470;50.224;14.348;2023-07-31T07:04:20;99204.34;;;18.04;66.05
79067;BME280;68470;50.224;14.348;2023-07-31T07:06:46;99204.91;;;18.15;65.51
79067;BME280;68470;50.224;14.348;2023-07-31T07:09:11;99204.91;;;18.55;65.23
79067;BME280;68470;50.224;14.348;2023-07-31T07:11:37;99203.88;;;18.82;63.84
79067;BME280;68470;50.224;14.348;2023-07-31T07:14:03;99218.88;;;19.20;65.75
79067;BME280;68470;50.224;14.348;2023-07-31T07:16:29;99207.34;;;18.87;62.76
79067;BME280;68470;50.224;14.348;2023-07-31T07:18:54;99218.69;;;18.60;62.17
79067;BME280;68470;50.224;14.348;2023-07-31T07:21:20;99221.06;;;18.75;61.86
79067;BME280;68470;50.224;14.348;2023-07-31T07:23:46;99210.16;;;18.48;63.32
79067;BME280;68470;50.224;14.348;2023-07-31T07:26:11;99217.19;;;18.14;63.90
79067;BME280;68470;50.224;14.348;2023-07-31T07:28:37;99203.84;;;18.02;64.90
79067;BME280;68470;50.224;14.348;2023-07-31T07:31:03;99211.06;;;18.03;65.03
79067;BME280;68470;50.224;14.348;2023-07-31T07:33:29;99199.28;;;18.38;65.10
79067;BME280;68470;50.224;14.348;2023-07-31T07:35:55;99207.22;;;18.61;65.64
79067;BME280;68470;50.224;14.348;2023-07-31T07:38:20;99203.19;;;18.76;63.62
79067;BME280;68470;50.224;14.348;2023-07-31T07:40:46;99204.00;;;18.68;62.76
79067;BME280;68470;50.224;14.348;2023-07-31T07:43:16;99202.38;;;18.67;64.58
79067;BME280;68470;50.224;14.348;2023-07-31T07:45:41;99210.34;;;19.17;62.80
79067;BME280;68470;50.224;14.348;2023-07-31T07:48:07;99201.34;;;19.63;60.37
79067;BME280;68470;50.224;14.348;2023-07-31T07:50:33;99208.34;;;19.95;59.59
79067;BME280;68470;50.224;14.348;2023-07-31T07:52:58;99201.00;;;19.82;58.66
79067;BME280;68470;50.224;14.348;2023-07-31T07:55:24;99218.22;;;19.41;59.53
79067;BME280;68470;50.224;14.348;2023-07-31T07:57:50;99209.00;;;19.14;59.78
79067;BME280;68470;50.224;14.348;2023-07-31T08:00:16;99211.31;;;19.04;60.83
79067;BME280;68470;50.224;14.348;2023-07-31T08:02:43;99222.09;;;18.97;60.37
79067;BME280;68470;50.224;14.348;2023-07-31T08:05:09;99205.91;;;19.16;61.29
79067;BME280;68470;50.224;14.348;2023-07-31T08:07:34;99213.91;;;18.83;60.22
79067;BME280;68470;50.224;14.348;2023-07-31T08:10:00;99213.84;;;18.74;62.13
79067;BME280;68470;50.224;14.348;2023-07-31T08:12:26;99203.44;;;18.57;61.95
79067;BME280;68470;50.224;14.348;2023-07-31T08:14:52;99206.06;;;18.14;62.83
79067;BME280;68470;50.224;14.348;2023-07-31T08:17:17;99215.63;;;17.99;64.20
79067;BME280;68470;50.224;14.348;2023-07-31T08:19:43;99215.72;;;17.86;65.25
79067;BME280;68470;50.224;14.348;2023-07-31T08:22:10;99220.13;;;17.87;65.41
79067;BME280;68470;50.224;14.348;2023-07-31T08:24:36;99230.13;;;17.88;65.00
79067;BME280;68470;50.224;14.348;2023-07-31T08:27:01;99226.09;;;17.71;66.03
79067;BME280;68470;50.224;14.348;2023-07-31T08:29:27;99222.31;;;17.54;65.24
79067;BME280;68470;50.224;14.348;2023-07-31T08:31:53;99232.13;;;17.51;65.82
79067;BME280;68470;50.224;14.348;2023-07-31T08:34:19;99225.78;;;17.59;64.75
79067;BME280;68470;50.224;14.348;2023-07-31T08:36:44;99230.50;;;17.72;65.56
79067;BME280;68470;50.224;14.348;2023-07-31T08:39:10;99237.09;;;17.99;65.32
79067;BME280;68470;50.224;14.348;2023-07-31T08:41:39;99234.81;;;18.01;64.64
79067;BME280;68470;50.224;14.348;2023-07-31T08:44:06;99216.50;;;18.09;64.62
79067;BME280;68470;50.224;14.348;2023-07-31T08:46:32;99223.44;;;18.20;64.96
79067;BME280;68470;50.224;14.348;2023-07-31T08:48:59;99214.09;;;18.16;63.79
79067;BME280;68470;50.224;14.348;2023-07-31T08:51:25;99217.97;;;18.37;63.19
79067;BME280;68470;50.224;14.348;2023-07-31T08:53:52;99218.19;;;18.58;64.26
79067;BME280;68470;50.224;14.348;2023-07-31T08:56:18;99223.19;;;18.70;62.95
79067;BME280;68470;50.224;14.348;2023-07-31T08:58:46;99210.81;;;18.62;63.07
79067;BME280;68470;50.224;14.348;2023-07-31T09:01:13;99222.22;;;18.74;63.97
79067;BME280;68470;50.224;14.348;2023-07-31T09:03:41;99220.16;;;19.06;63.22
79067;BME280;68470;50.224;14.348;2023-07-31T09:06:07;99218.88;;;19.46;61.02
79067;BME280;68470;50.224;14.348;2023-07-31T09:08:34;99201.31;;;19.89;61.50
79067;BME280;68470;50.224;14.348;2023-07-31T09:11:01;99189.81;;;20.46;58.62
79067;BME280;68470;50.224;14.348;2023-07-31T09:13:32;99202.97;;;20.84;57.60
79067;BME280;68470;50.224;14.348;2023-07-31T09:15:58;99213.31;;;20.54;57.01
79067;BME280;68470;50.224;14.348;2023-07-31T09:18:24;99211.97;;;20.04;59.23
79067;BME280;68470;50.224;14.348;2023-07-31T09:21:05;99208.44;;;20.25;57.43
79067;BME280;68470;50.224;14.348;2023-07-31T09:23:45;99208.03;;;20.05;57.22
79067;BME280;68470;50.224;14.348;2023-07-31T09:26:32;99206.00;;;20.14;58.27
79067;BME280;68470;50.224;14.348;2023-07-31T09:28:59;99200.31;;;19.94;58.66
79067;BME280;68470;50.224;14.348;2023-07-31T09:31:51;99205.56;;;20.04;59.14
79067;BME280;68470;50.224;14.348;2023-07-31T09:34:17;99199.81;;;19.92;58.81
79067;BME280;68470;50.224;14.348;2023-07-31T09:36:51;99192.53;;;20.17;59.07
79067;BME280;68470;50.224;14.348;2023-07-31T09:39:19;99198.13;;;20.17;58.42
79067;BME280;68470;50.224;14.348;2023-07-31T09:41:55;99193.81;;;20.28;58.31
79067;BME280;68470;50.224;14.348;2023-07-31T09:44:37;99189.28;;;19.97;59.38
79067;BME280;68470;50.224;14.348;2023-07-31T09:47:03;99182.25;;;20.38;58.45
79067;BME280;68470;50.224;14.348;2023-07-31T09:49:29;99175.66;;;20.51;57.58
79067;BME280;68470;50.224;14.348;2023-07-31T09:51:55;99161.28;;;20.91;58.19
79067;BME280;68470;50.224;14.348;2023-07-31T09:54:22;99164.72;;;20.67;57.94
79067;BME280;68470;50.224;14.348;2023-07-31T09:56:49;99164.06;;;20.91;57.14
79067;BME280;68470;50.224;14.348;2023-07-31T09:59:16;99164.31;;;21.48;54.61
79067;BME280;68470;50.224;14.348;2023-07-31T10:01:44;99155.44;;;22.12;53.20
79067;BME280;68470;50.224;14.348;2023-07-31T10:04:13;99144.50;;;22.19;53.75
79067;BME280;68470;50.224;14.348;2023-07-31T10:06:40;99137.16;;;22.39;52.63
79067;BME280;68470;50.224;14.348;2023-07-31T10:09:09;99129.78;;;22.23;51.97
79067;BME280;68470;50.224;14.348;2023-07-31T10:11:47;99122.88;;;22.57;51.65
79067;BME280;68470;50.224;14.348;2023-07-31T10:14:20;99118.91;;;22.82;50.81
79067;BME280;68470;50.224;14.348;2023-07-31T10:16:46;99126.09;;;23.20;51.37
79067;BME280;68470;50.224;14.348;2023-07-31T10:19:14;99123.97;;;24.16;48.55
79067;BME280;68470;50.224;14.348;2023-07-31T10:21:39;99117.00;;;24.10;46.79
79067;BME280;68470;50.224;14.348;2023-07-31T10:24:07;99117.25;;;24.68;45.95
79067;BME280;68470;50.224;14.348;2023-07-31T10:26:34;99119.25;;;24.52;47.13
79067;BME280;68470;50.224;14.348;2023-07-31T10:29:01;99124.06;;;23.88;47.20
79067;BME280;68470;50.224;14.348;2023-07-31T10:31:28;99117.16;;;23.18;49.04
79067;BME280;68470;50.224;14.348;2023-07-31T10:33:56;99110.84;;;23.49;49.21
79067;BME280;68470;50.224;14.348;2023-07-31T10:36:23;99105.22;;;24.05;47.20
79067;BME280;68470;50.224;14.348;2023-07-31T10:38:49;99097.22;;;25.43;44.01
79067;BME280;68470;50.224;14.348;2023-07-31T10:41:16;99089.75;;;27.18;39.65
79067;BME280;68470;50.224;14.348;2023-07-31T10:43:43;99085.44;;;26.45;42.53
79067;BME280;68470;50.224;14.348;2023-07-31T10:46:12;99093.97;;;26.26;42.08
79067;BME280;68470;50.224;14.348;2023-07-31T10:48:40;99089.81;;;25.74;42.31
79067;BME280;68470;50.224;14.348;2023-07-31T10:51:11;99081.78;;;25.18;43.68
79067;BME280;68470;50.224;14.348;2023-07-31T10:53:41;99085.50;;;25.03;43.87
79067;BME280;68470;50.224;14.348;2023-07-31T10:56:09;99078.69;;;25.42;43.87
79067;BME280;68470;50.224;14.348;2023-07-31T10:58:37;99083.91;;;25.21;43.97
79067;BME280;68470;50.224;14.348;2023-07-31T11:01:04;99069.03;;;25.63;42.33
79067;BME280;68470;50.224;14.348;2023-07-31T11:03:45;99074.84;;;26.16;41.73
79067;BME280;68470;50.224;14.348;2023-07-31T11:06:13;99074.28;;;26.06;41.91
79067;BME280;68470;50.224;14.348;2023-07-31T11:08:46;99073.19;;;26.60;40.69
79067;BME280;68470;50.224;14.348;2023-07-31T11:11:17;99077.91;;;26.30;40.39
79067;BME280;68470;50.224;14.348;2023-07-31T11:13:47;99058.16;;;25.84;41.42
79067;BME280;68470;50.224;14.348;2023-07-31T11:16:22;99057.63;;;26.21;40.57
79067;BME280;68470;50.224;14.348;2023-07-31T11:18:49;99066.44;;;27.58;37.83
79067;BME280;68470;50.224;14.348;2023-07-31T11:21:18;99049.41;;;26.12;40.40
79067;BME280;68470;50.224;14.348;2023-07-31T11:23:48;99058.47;;;25.37;42.00
79067;BME280;68470;50.224;14.348;2023-07-31T11:26:15;99054.56;;;26.33;40.73
79067;BME280;68470;50.224;14.348;2023-07-31T11:28:41;99049.97;;;25.98;41.34
79067;BME280;68470;50.224;14.348;2023-07-31T11:31:11;99051.09;;;25.32;43.59
79067;BME280;68470;50.224;14.348;2023-07-31T11:33:37;99037.44;;;24.96;44.77
79067;BME280;68470;50.224;14.348;2023-07-31T11:36:03;99038.22;;;25.31;43.94
79067;BME280;68470;50.224;14.348;2023-07-31T11:38:31;99038.53;;;25.07;44.03
79067;BME280;68470;50.224;14.348;2023-07-31T11:41:00;99031.25;;;24.86;43.67
79067;BME280;68470;50.224;14.348;2023-07-31T11:43:29;99031.63;;;24.18;44.98
79067;BME280;68470;50.224;14.348;2023-07-31T11:45:56;99032.00;;;24.01;44.61
79067;BME280;68470;50.224;14.348;2023-07-31T11:48:24;99039.50;;;24.28;44.75
79067;BME280;68470;50.224;14.348;2023-07-31T11:50:51;99028.56;;;25.32;44.02
79067;BME280;68470;50.224;14.348;2023-07-31T11:53:22;99027.91;;;25.39;41.86
79067;BME280;68470;50.224;14.348;2023-07-31T11:55:50;99024.16;;;25.12;43.44
79067;BME280;68470;50.224;14.348;2023-07-31T11:58:17;99023.50;;;24.64;43.80
79067;BME280;68470;50.224;14.348;2023-07-31T12:00:43;99020.56;;;24.76;43.52
79067;BME280;68470;50.224;14.348;2023-07-31T12:03:10;99030.84;;;24.02;44.99
79067;BME280;68470;50.224;14.348;2023-07-31T12:05:37;99032.38;;;23.84;45.52
79067;BME280;68470;50.224;14.348;2023-07-31T12:08:09;99020.94;;;24.40;45.12
79067;BME280;68470;50.224;14.348;2023-07-31T12:10:34;99002.94;;;25.18;42.87
79067;BME280;68470;50.224;14.348;2023-07-31T12:13:01;98997.38;;;24.83;42.78
79067;BME280;68470;50.224;14.348;2023-07-31T12:15:38;99007.84;;;24.47;43.44
79067;BME280;68470;50.224;14.348;2023-07-31T12:18:10;99000.78;;;24.73;43.20
79067;BME280;68470;50.224;14.348;2023-07-31T12:20:41;99000.97;;;24.45;44.38
79067;BME280;68470;50.224;14.348;2023-07-31T12:23:16;98996.44;;;24.40;43.09
79067;BME280;68470;50.224;14.348;2023-07-31T12:25:42;98999.81;;;23.83;43.15
79067;BME280;68470;50.224;14.348;2023-07-31T12:28:08;98988.22;;;24.51;42.50
79067;BME280;68470;50.224;14.348;2023-07-31T12:30:38;98977.34;;;25.04;42.14
79067;BME280;68470;50.224;14.348;2023-07-31T12:33:14;98988.69;;;25.30;41.46
79067;BME280;68470;50.224;14.348;2023-07-31T12:35:43;98983.34;;;25.67;39.85
79067;BME280;68470;50.224;14.348;2023-07-31T12:38:11;98970.81;;;26.11;38.90
79067;BME280;68470;50.224;14.348;2023-07-31T12:40:38;98989.31;;;26.08;38.15
79067;BME280;68470;50.224;14.348;2023-07-31T12:43:06;98983.34;;;25.67;39.76
79067;BME280;68470;50.224;14.348;2023-07-31T12:45:32;98969.78;;;26.79;37.83
79067;BME280;68470;50.224;14.348;2023-07-31T12:47:58;98971.72;;;26.41;38.56
79067;BME280;68470;50.224;14.348;2023-07-31T12:50:24;98971.84;;;25.11;40.92
79067;BME280;68470;50.224;14.348;2023-07-31T12:52:52;98964.63;;;24.55;43.46
79067;BME280;68470;50.224;14.348;2023-07-31T12:55:18;98973.81;;;24.91;42.05